Airfield :
LOGIN :

Register | Disclaimer

   EN    FR    IT 

 










Legend :    VFR   Marginal VFR   IFR   Intensive IFR   Very Intensive IFR
Visi :
Ceiling :
>= 8 km
>= 3000ft
5 to 8 km
1000 to 3000 ft
1500m to 5 km
500 to 1000 ft
800 to 1500m
200 to 500 ft
< 800m
< 200 ft
Symbols :   Thunderstorms  Fog  Heavy snow  Heavy precipitations  Wind > 20 kt
SIGMETs :     Misc.  Thunderstorms  Icing  Turbulence  Mountain Waves  Volcanic Ashes







- Airport Elevation : 1234 ft
- IATA code : LUX


ELLX - Luxembourg Findel

CURRENT METAR :
  • 201150Z 33009KT 290V030 9999 FEW022 SCT024 17/10 Q1008 NOSIG

EXPIRED METARs :
  • 201120Z 33008KT 280V020 9999 FEW019 SCT022 17/10 Q1008 NOSIG
  • 201050Z 33009KT 290V010 9999 FEW017 BKN019 16/10 Q1008 NOSIG
  • 201020Z 35009KT 300V020 9999 FEW015 BKN018 15/10 Q1007 NOSIG
  • 200950Z 32009KT 280V360 9999 BKN016 15/10 Q1007 NOSIG
  • 200920Z 34010KT 310V010 9999 BKN016 15/10 Q1007 NOSIG

TAF TAF ELLX
Valid from the 20 at 12:00 until the 21 at 18:00 UTC


201100Z 2012/2118 34010KT 9999 BKN018
PROB40
TEMPO 2013/2017 5000 SHRA SCT020TCU
TEMPO 2102/2107 BKN010
ATIS : +352 4798 27300
Met : +352 4798 27010 / 27050
No reported NOTAMs for that airfield.



MET'MAP, your aeronautical weather chart ! - Copyright ORBIFLY December 2007 - Disclaimer

ORBIFLY MET'MAP TEAM :

Programming & Development : Alexandra Zaïnal
Concept & Development : Baudouin d'Aumeries
Co-Development & Prog : Marc-Olivier Méhu
Technical & hardware support : Manuel Goepfert

Contact : metmap@orbifly.com




SOURCES & CREDITS :

   NOAA